Latest Weather Observations for Meekatharra

IDW60801

Issued at 4:33 pm WST Saturday 16 December 2017 (issued every 30 minutes, with the page automatically refreshed every 10 minutes)

About weather observations | Map of weather stations | Latest weather observations for WA | Other Formats
Station Details ID: 007045 Name: MEEKATHARRA AIRPORT Lat: -26.61 Lon: 118.54 Height: 517.0 m
Data from the previous 72 hours. | See also: Recent months at Meekatharra
Date/Time
WST
Temp
°C
App
Temp
°C
Dew
Point
°C
Rel
Hum
%
Delta-T
°C
Wind Press
QNH
hPa
Press
MSL
hPa
Rain since
9am
mm
Dir  Spd
km/h
Gust
km/h
Spd
kts
Gust
kts
16/04:30pm 38.3 31.1 -1.7 8 20.1 WNW 26 44 14 24 1005.8 1001.9 0.0
16/04:15pm 38.2 29.7 -1.8 8 20.1 W 33 50 18 27 1006.0 1002.1 0.0
16/04:09pm 38.3 30.0 -1.7 8 20.1 WNW 32 50 17 27 1006.1 1002.2 0.0
16/04:00pm 39.0 31.5 -1.2 8 20.5 WNW 28 46 15 25 1006.1 1002.2 0.0
16/03:58pm 38.8 31.3 -1.3 8 20.4 WNW 28 46 15 25 1006.0 1002.1 0.0
16/03:30pm 38.9 30.2 -3.1 7 20.7 WNW 33 50 18 27 1006.4 1002.4 0.0
16/03:10pm 39.0 31.3 -3.0 7 20.8 WNW 28 46 15 25 1006.6 1002.6 0.0
16/03:00pm 38.9 31.2 -3.1 7 20.8 WNW 28 44 15 24 1006.6 1002.6 0.0
16/02:30pm 38.5 29.8 -3.4 7 20.5 WNW 33 52 18 28 1006.9 1003.0 0.0
16/02:22pm 39.3 32.0 -2.8 7 20.9 WNW 26 46 14 25 1007.0 1003.1 0.0
16/02:00pm 39.3 31.4 -4.8 6 21.3 WNW 28 41 15 22 1007.2 1003.3 0.0
16/01:31pm 38.3 30.5 -3.5 7 20.4 WNW 28 48 15 26 1007.5 1003.6 0.0
16/01:30pm 38.5 31.1 -3.4 7 20.5 WNW 26 48 14 26 1007.4 1003.5 0.0
16/01:19pm 38.7 31.0 -3.2 7 20.6 W 28 46 15 25 1007.6 1003.7 0.0
16/01:00pm 38.4 30.4 -5.5 6 20.9 W 28 41 15 22 1007.8 1003.9 0.0
16/12:41pm 37.9 29.9 -5.8 6 20.5 WNW 28 46 15 25 1008.0 1004.1 0.0
16/12:30pm 38.1 30.9 -5.7 6 20.6 WNW 24 43 13 23 1008.0 1004.1 0.0
16/12:09pm 37.8 30.0 -3.9 7 20.2 NW 28 46 15 25 1008.5 1004.5 0.0
16/12:00pm 38.9 31.2 -3.1 7 20.8 WNW 28 39 15 21 1008.5 1004.5 0.0
16/11:30am 37.8 30.4 -3.9 7 20.2 WNW 26 44 14 24 1008.8 1004.9 0.0
16/11:00am 37.1 29.6 -4.4 7 19.9 W 26 43 14 23 1009.0 1005.1 0.0
16/10:30am 36.6 29.7 -3.0 8 19.3 NW 24 39 13 21 1009.2 1005.3 0.0
16/10:00am 35.6 29.7 -0.7 10 18.2 NW 20 35 11 19 1009.4 1005.5 0.0
16/09:30am 34.4 29.5 4.0 15 16.3 WNW 19 28 10 15 1009.4 1005.5 0.0
16/09:00am 32.8 29.3 5.4 18 14.9 NW 13 20 7 11 1009.4 1005.5 -
16/08:30am 31.4 28.7 5.8 20 13.9 NW 9 15 5 8 1009.5 1005.6 -
16/08:00am 30.4 27.5 6.3 22 13.2 W 11 15 6 8 1009.5 1005.6 -
16/07:30am 29.0 25.8 7.0 25 12.1 WNW 13 17 7 9 1009.5 1005.6 -
16/07:00am 28.1 24.9 6.8 26 11.6 WNW 13 22 7 12 1009.2 1005.3 -
16/06:30am 27.5 24.3 6.8 27 11.2 WNW 13 17 7 9 1009.0 1005.1 -
16/06:00am 26.6 23.8 7.1 29 10.6 WNW 11 17 6 9 1008.6 1004.6 -
16/05:30am 25.4 23.3 6.6 30 10.0 W 7 9 4 5 1008.1 1004.2 -
16/05:00am 25.6 22.8 6.8 30 10.1 W 11 13 6 7 1007.8 1003.9 -
16/04:30am 26.2 23.8 6.8 29 10.4 W 9 13 5 7 1007.4 1003.5 -
16/04:00am 26.7 23.8 6.7 28 10.8 W 11 15 6 8 1007.1 1003.2 -
16/03:30am 27.1 24.2 6.5 27 11.1 W 11 17 6 9 1007.0 1003.1 -
16/03:00am 27.5 24.7 6.8 27 11.2 WSW 11 15 6 8 1006.9 1003.0 -
16/02:30am 28.4 25.1 6.5 25 11.9 WSW 13 17 7 9 1006.9 1003.0 -
16/02:00am 29.1 25.2 7.1 25 12.1 SW 17 20 9 11 1006.8 1002.8 -
16/01:30am 29.8 25.8 6.5 23 12.7 SW 17 24 9 13 1006.8 1002.8 -
16/01:00am 30.4 26.3 6.3 22 13.2 WSW 17 24 9 13 1007.1 1003.2 -
16/12:30am 31.3 26.2 4.2 18 14.3 WSW 20 28 11 15 1007.1 1003.2 -
16/12:00am 32.2 26.7 0.3 13 16.0 WSW 19 24 10 13 1007.0 1003.1 -
 
Date/Time
WST
Temp
°C
App
Temp
°C
Dew
Point
°C
Rel
Hum
%
Delta-T
°C
Wind Press
QNH
hPa
Press
MSL
hPa
Rain since
9am
mm
Dir  Spd
km/h
Gust
km/h
Spd
kts
Gust
kts
15/11:30pm 32.8 26.8 -1.5 11 16.7 W 20 28 11 15 1007.1 1003.2 -
15/11:00pm 33.2 27.6 -2.5 10 17.2 WSW 17 28 9 15 1007.4 1003.5 -
15/10:30pm 33.0 28.4 -4.0 9 17.3 WSW 11 15 6 8 1007.6 1003.7 -
15/10:00pm 34.1 28.5 -3.2 9 17.8 WSW 17 24 9 13 1007.6 1003.7 -
15/09:30pm 33.9 29.0 -3.4 9 17.7 W 13 17 7 9 1007.4 1003.5 -
15/09:00pm 33.7 29.0 -5.1 8 17.9 WSW 11 13 6 7 1007.2 1003.3 -
15/08:30pm 34.2 29.5 -4.7 8 18.1 WSW 11 13 6 7 1007.1 1003.2 -
15/08:00pm 35.3 30.7 -3.9 8 18.7 W 11 15 6 8 1007.0 1003.1 -
15/07:30pm 36.4 32.1 -4.9 7 19.5 WSW 9 13 5 7 1006.7 1002.7 -
15/07:00pm 37.6 31.9 -4.0 7 20.1 W 17 24 9 13 1006.5 1002.5 -
15/06:30pm 38.7 32.8 -5.3 6 21.0 W 17 26 9 14 1006.1 1002.2 -
15/06:00pm 39.5 33.1 -4.7 6 21.4 WNW 20 30 11 16 1005.9 1002.0 -
15/05:30pm 40.1 34.0 -4.3 6 21.7 W 19 32 10 17 1005.6 1001.7 -
15/05:00pm 40.5 33.8 -4.0 6 21.9 W 22 41 12 22 1005.6 1001.7 -
15/04:30pm 41.1 34.2 -6.0 5 22.6 W 22 37 12 20 1005.5 1001.6 -
15/04:00pm 40.9 34.4 -6.1 5 22.5 WNW 20 35 11 19 1005.7 1001.8 -
15/03:30pm 40.7 33.7 -3.9 6 22.0 W 24 43 13 23 1005.9 1002.0 -
15/03:01pm 41.3 33.5 -3.4 6 22.3 W 28 46 15 25 1005.9 1002.0 -
15/03:00pm 41.3 33.7 -5.8 5 22.7 WSW 26 46 14 25 1005.9 1002.0 -
15/02:30pm 41.3 33.5 -3.4 6 22.3 NW 28 44 15 24 1006.4 1002.4 -
15/02:00pm 41.1 33.3 -3.6 6 22.3 NW 28 50 15 27 1006.6 1002.6 -
15/01:30pm 40.5 32.6 -1.9 7 21.5 NW 30 41 16 22 1006.9 1003.0 -
15/09:30am 36.4 30.1 7.4 17 16.6 N 30 44 16 24 1009.7 1005.8 0.0
15/09:00am 35.7 30.0 8.5 19 15.8 NNE 28 46 15 25 1009.9 1006.0 -
15/08:56am 35.4 29.7 8.3 19 15.6 NNE 28 46 15 25 1009.8 1005.9 -
15/08:30am 34.3 28.3 8.8 21 14.7 NNE 30 44 16 24 1009.9 1006.0 -
15/08:00am 33.0 27.5 9.1 23 13.8 NNE 28 39 15 21 1010.0 1006.1 -
15/07:30am 32.3 27.6 9.2 24 13.3 NE 24 35 13 19 1010.1 1006.2 -
15/07:00am 31.6 27.6 9.2 25 12.9 ENE 20 32 11 17 1010.0 1006.1 -
15/06:30am 30.0 26.6 9.0 27 11.9 ENE 17 22 9 12 1009.8 1005.9 -
15/06:00am 28.3 26.5 9.6 31 10.7 E 9 13 5 7 1009.7 1005.8 -
15/05:30am 26.9 24.4 9.7 34 9.8 E 13 15 7 8 1009.6 1005.7 -
15/05:00am 26.6 24.0 9.5 34 9.7 E 13 15 7 8 1009.5 1005.6 -
15/04:30am 26.2 24.4 9.5 35 9.4 ESE 9 11 5 6 1009.3 1005.4 -
15/04:00am 26.7 25.3 9.5 34 9.7 ESE 7 9 4 5 1009.1 1005.2 -
15/03:30am 27.4 25.7 9.7 33 10.1 ESE 9 11 5 6 1008.9 1005.0 -
15/03:00am 28.1 25.9 9.4 31 10.6 ESE 11 15 6 8 1008.9 1005.0 -
15/02:30am 28.7 26.1 9.4 30 11.0 ESE 13 17 7 9 1008.8 1004.9 -
15/02:00am 28.9 26.2 9.1 29 11.2 SE 13 17 7 9 1008.8 1004.9 -
15/01:30am 29.2 26.5 8.8 28 11.5 SE 13 17 7 9 1009.0 1005.1 -
15/01:00am 29.5 27.1 8.5 27 11.8 SE 11 13 6 7 1009.2 1005.4 -
15/12:30am 29.9 27.7 7.8 25 12.3 ESE 9 13 5 7 1009.4 1005.6 -
15/12:00am 30.0 26.7 6.6 23 12.8 SE 13 17 7 9 1009.6 1005.8 -
 
Date/Time
WST
Temp
°C
App
Temp
°C
Dew
Point
°C
Rel
Hum
%
Delta-T
°C
Wind Press
QNH
hPa
Press
MSL
hPa
Rain since
9am
mm
Dir  Spd
km/h
Gust
km/h
Spd
kts
Gust
kts
14/11:30pm 29.8 26.9 4.4 20 13.4 S 9 11 5 6 1009.7 1005.9 -
14/11:00pm 30.0 26.4 3.1 18 13.9 S 11 13 6 7 1010.1 1006.4 -
14/10:30pm 30.7 27.6 3.7 18 14.1 SSW 9 11 5 6 1010.2 1006.5 -
14/10:00pm 31.1 27.9 3.2 17 14.5 S 9 11 5 6 1010.4 1006.6 -
14/09:30pm 32.0 28.8 3.1 16 15.1 SSW 9 9 5 5 1010.2 1006.5 -
14/09:00pm 33.1 29.9 3.0 15 15.8 SSW 9 11 5 6 1010.1 1006.4 -
14/08:30pm 33.8 30.7 3.6 15 16.1 S 9 11 5 6 1009.8 1006.0 -
14/08:00pm 34.7 31.9 3.3 14 16.7 SW 7 11 4 6 1009.6 1005.8 -
14/07:30pm 35.6 32.4 3.0 13 17.3 SW 9 11 5 6 1009.4 1005.6 -
14/07:00pm 36.2 33.6 3.4 13 17.6 W 6 11 3 6 1009.0 1005.2 -
14/06:30pm 37.0 33.0 2.9 12 18.2 WSW 13 17 7 9 1008.7 1004.9 -
14/06:00pm 38.1 34.0 2.5 11 19.1 WSW 13 19 7 10 1008.5 1004.7 -
14/05:30pm 38.3 35.0 2.7 11 19.1 WSW 9 15 5 8 1008.3 1004.5 -
14/05:00pm 37.9 35.0 2.4 11 19.0 NW 7 13 4 7 1008.3 1004.5 -
14/04:30pm 38.1 33.9 3.8 12 18.7 WNW 15 26 8 14 1008.4 1004.6 -
14/04:00pm 37.6 34.1 3.4 12 18.5 E 11 17 6 9 1008.6 1004.8 -
14/03:30pm 38.5 34.4 4.1 12 18.9 NNW 15 24 8 13 1009.0 1005.2 -
14/03:00pm 37.6 34.7 4.5 13 18.2 WSW 9 15 5 8 1009.3 1005.5 -
14/02:30pm 37.0 34.6 5.1 14 17.7 SW 7 20 4 11 1009.6 1005.8 -
14/02:00pm 37.2 34.3 6.3 15 17.5 SSW 11 20 6 11 1010.1 1006.1 -
14/01:30pm 36.5 34.0 6.6 16 16.9 NE 9 20 5 11 - - 0.0
14/01:00pm 37.0 34.4 7.9 17 16.8 WNW 11 20 6 11 1010.8 1006.9 0.0
14/12:30pm 36.6 34.1 6.7 16 16.9 WNW 9 20 5 11 1011.2 1007.3 0.0
14/12:00pm 35.6 32.2 7.6 18 16.0 S 15 30 8 16 1011.6 1007.7 0.0
14/11:30am 35.7 33.1 7.7 18 16.0 S 11 37 6 20 1012.2 1008.3 0.0
14/11:00am 34.3 31.6 10.2 23 14.2 N 15 26 8 14 1012.6 1008.7 0.0
14/10:30am 34.1 32.2 11.9 26 13.4 ENE 13 20 7 11 1012.8 1008.9 0.0
14/10:00am 33.1 29.8 11.6 27 12.9 ENE 20 33 11 18 1013.1 1009.2 0.0
14/09:30am 31.9 28.8 12.2 30 11.9 E 20 32 11 17 1013.3 1009.4 0.0
14/09:00am 30.8 26.4 11.7 31 11.4 E 26 41 14 22 1013.5 1009.6 0.0
14/08:30am 30.1 25.9 11.1 31 11.2 E 24 37 13 20 1013.4 1009.5 0.0
14/08:00am 29.3 24.3 10.9 32 10.8 ESE 28 37 15 20 1013.4 1009.5 0.0
14/07:30am 28.1 22.8 9.9 32 10.4 ESE 28 39 15 21 1013.4 1009.5 0.0
14/07:00am 27.0 21.4 8.9 32 10.1 ESE 28 39 15 21 1013.2 1009.3 0.0
14/06:30am 26.0 20.6 8.0 32 9.9 SE 26 39 14 21 1013.1 1009.2 0.0
14/06:00am 25.3 19.9 7.9 33 9.5 SE 26 32 14 17 1012.9 1009.0 0.0
14/05:30am 24.7 20.0 7.8 34 9.2 SE 22 32 12 17 1012.6 1008.7 0.0
14/05:00am 24.6 20.3 7.7 34 9.2 SSE 20 30 11 16 1012.4 1008.5 0.0
14/04:30am 24.8 20.4 7.4 33 9.4 SSE 20 28 11 15 1012.2 1008.3 0.0
14/04:00am 25.2 20.8 7.3 32 9.7 SSE 20 30 11 16 1011.7 1007.8 0.0
14/03:30am 25.7 20.9 7.3 31 10.0 SSE 22 33 12 18 1011.7 1007.8 0.0
14/03:00am 26.2 21.3 6.8 29 10.4 SSE 22 33 12 18 1011.6 1007.7 0.0
14/02:30am 26.5 21.9 6.5 28 10.7 SSE 20 30 11 16 1011.5 1007.6 0.0
14/02:00am 27.1 22.1 6.5 27 11.1 SSE 22 32 12 17 1011.4 1007.5 0.0
14/01:30am 27.5 22.1 6.3 26 11.4 S 24 33 13 18 1011.5 1007.6 0.0
14/01:00am 28.0 23.3 6.2 25 11.7 S 20 28 11 15 1011.5 1007.6 0.0
14/12:30am 28.2 24.0 5.7 24 12.0 S 17 20 9 11 1011.6 1007.7 0.0
14/12:00am 28.8 24.6 5.6 23 12.4 S 17 20 9 11 1011.7 1007.8 0.0
 
Date/Time
WST
Temp
°C
App
Temp
°C
Dew
Point
°C
Rel
Hum
%
Delta-T
°C
Wind Press
QNH
hPa
Press
MSL
hPa
Rain since
9am
mm
Dir  Spd
km/h
Gust
km/h
Spd
kts
Gust
kts
13/11:30pm 29.3 25.2 6.0 23 12.6 S 17 24 9 13 1011.9 1008.0 0.0
13/11:00pm 29.6 25.9 6.3 23 12.7 SSW 15 20 8 11 1012.2 1008.3 0.0
13/10:30pm 30.0 26.0 6.6 23 12.8 SSW 17 24 9 13 1012.3 1008.4 0.0
13/10:00pm 30.6 26.3 7.1 23 13.0 SSW 19 24 10 13 1012.3 1008.4 0.0
13/09:30pm 31.0 27.2 7.5 23 13.1 SSW 17 24 9 13 1012.0 1008.1 0.0
13/09:00pm 31.6 27.4 7.3 22 13.6 SSW 19 28 10 15 1011.7 1007.8 0.0
13/08:30pm 32.2 28.3 7.1 21 14.0 SSW 17 22 9 12 1011.5 1007.6 0.0
13/08:00pm 32.7 27.8 6.8 20 14.4 SW 22 28 12 15 1011.3 1007.4 0.0
13/07:30pm 33.2 28.8 7.2 20 14.6 SW 20 26 11 14 1011.1 1007.2 0.0
13/07:00pm 33.8 29.3 7.0 19 15.1 SW 20 28 11 15 1010.7 1006.8 0.0
13/06:30pm 34.4 30.0 6.7 18 15.5 SSW 19 30 10 16 1010.4 1006.5 0.0
13/06:00pm 35.0 30.9 6.3 17 16.0 SSW 17 24 9 13 1010.1 1006.1 0.0
13/05:30pm 35.6 31.3 6.8 17 16.2 SW 19 28 10 15 1009.9 1005.9 0.0
13/05:00pm 35.3 32.6 7.4 18 15.9 SSW 11 24 6 13 1009.6 1005.7 0.0

Other Formats:

Comma delimited format used in spreadsheet applications
http://www.bom.gov.au/fwo/IDW60801/IDW60801.94430.axf

JavaScript Object Notation format (JSON) in row-major order
http://www.bom.gov.au/fwo/IDW60801/IDW60801.94430.json